首页
METAR-TAF:

METAR-TAF

机场 :

Lynn Lake, 曼尼托巴, 加拿大

纬度: 56-52N, 经度: 101-05W, 海拔: 357米

当前天气观测

该预报发布于24小时和51分钟前的21:22 UTC
风速11节,风向东北
温度 16°C
湿度 88%
气压 998 hPa
能見度: 14.5公里
少量云层高于2000英尺
多云层高于2600英尺
多云层高于3800英尺
阴天层高于4800英尺
雷暴

METAR: CYYL 242122Z AUTO 05011KT 9SM TS FEW020 BKN026 BKN038 OVC048 16/14 A2946 RMK LTNG DIST SE PRESRR PCPN 3.0MM PAST HR SLP985 DENSITY ALT 2100FT

时间: 17:13 (22:13 UTC)

预报

该预报发布于25小时和6分钟前的21:07 UTC
预报有效从24日的 21点(UTC)到 25日的 07点(UTC)
风速12节,风向北转东北
能見度: 10公里
散云层高于5000英尺
多云层高于20000英尺
短暂存在
从 24日的 21点(UTC)到 24日的 22点(UTC)
风速15节,风向多变,有时为25节阵风
能見度: 3.2公里
多云层高于1200英尺
阴天层高于2500英尺, 积雨云.
雷暴, 小雨
从 24日的 2200点(UTC)
风速15节,风向东转东北
能見度: 10公里
多云层高于5000英尺

TAF: CYYL 242107Z 2421/2507 03012KT P6SM SCT050 BKN200 TEMPO 2421/2422 VRB15G25KT 2SM -TSRA BKN012 OVC025CB FM242200 06015KT P6SM BKN050 RMK FCST BASED ON AUTO OBS. NXT FCST BY 250100Z

超过4000个机场的气象观测和天气预报(METAR&TAF报告)。

可查询的气象台以黄色和红色小点在地图上表示。

将鼠标移到小点上方,可查看气象台名称。

然后点击查看天气观测和预报。

如需切换地图:点击带黑十字的绿色按钮放大地图;点击带横线的绿色按钮缩小地图;或者点击绿色箭头查看邻近地区的地图。


METAR-TAF: